Terminal Aerodrome Forecast
Issued by NWS

Home | Current Version | Previous Version | Text Only | Print | Product List | Glossary Off
Versions: 1 2 3 4 5 6 7 8 9 10 11 12 13 14 15 16 17 18 19 20 21 22 23 24

000
FTUS43 KMPX 161311 CCA
TAFRWF
TAF COR
KRWF 161311Z 1613/1712 13007KT 4SM BR OVC005
     FM161700 10007KT 6SM -RA BR SCT006 OVC015
     FM162000 01007KT 4SM -RA BR VCTS SCT015 OVC025CB
      TEMPO 1620/1624 2SM TSRA BKN025CB
     FM170000 32006KT 4SM -SHRA BR SCT007 OVC020
     FM170400 31006KT 6SM BR OVC007=

USA.gov is the U.S. government's official web portal to all federal, state and local government web resources and services.